createdAt,value
2018-12-17T00:02:43.081Z,90.30
2018-12-17T00:05:10.571Z,90.20
2018-12-17T00:07:38.195Z,90.30
2018-12-17T00:12:33.917Z,90.20
2018-12-17T00:15:01.581Z,90.10
2018-12-17T00:17:29.238Z,90.10
2018-12-17T00:19:56.897Z,90.10
2018-12-17T00:22:24.357Z,90.10
2018-12-17T00:24:52.010Z,90.10
2018-12-17T00:27:19.461Z,90.00
2018-12-17T00:29:47.118Z,89.80
2018-12-17T00:32:14.576Z,89.70
2018-12-17T00:34:42.233Z,89.90
2018-12-17T00:37:09.686Z,89.90
2018-12-17T00:39:37.250Z,89.80
2018-12-17T00:42:04.689Z,89.60
2018-12-17T00:44:32.254Z,89.60
2018-12-17T00:46:59.705Z,89.50
2018-12-17T00:49:27.169Z,89.50
2018-12-17T00:51:54.621Z,89.40
2018-12-17T00:54:22.053Z,89.50
2018-12-17T00:56:49.524Z,89.40
2018-12-17T00:59:17.179Z,89.50
2018-12-17T01:04:12.166Z,89.20
2018-12-17T01:06:39.745Z,89.00
2018-12-17T01:09:07.402Z,89.00
2018-12-17T01:11:35.061Z,89.40
2018-12-17T01:14:02.716Z,89.00
2018-12-17T01:16:30.399Z,88.90
2018-12-17T01:21:25.949Z,88.80
2018-12-17T01:23:53.450Z,89.00
2018-12-17T01:26:21.665Z,88.80
2018-12-17T01:28:49.184Z,88.70
2018-12-17T01:31:16.742Z,88.70
2018-12-17T01:33:44.401Z,88.90
2018-12-17T01:36:12.060Z,88.90
2018-12-17T01:38:39.518Z,89.10
2018-12-17T01:43:34.431Z,88.60
2018-12-17T01:48:29.529Z,88.10
2018-12-17T01:50:56.987Z,88.00
2018-12-17T01:55:52.009Z,88.00
2018-12-17T02:00:46.974Z,88.20
2018-12-17T02:03:14.473Z,88.30
2018-12-17T02:05:42.109Z,88.30
2018-12-17T02:08:09.577Z,88.30
2018-12-17T02:10:37.028Z,88.60
2018-12-17T02:13:04.486Z,88.50
2018-12-17T02:15:31.938Z,88.40
2018-12-17T02:17:59.594Z,88.60
2018-12-17T02:20:27.050Z,88.60
2018-12-17T02:22:54.507Z,88.50
2018-12-17T02:25:22.166Z,88.00
2018-12-17T02:27:49.820Z,88.30
2018-12-17T02:30:17.302Z,88.30
2018-12-17T02:32:44.748Z,88.60
2018-12-17T02:35:12.480Z,88.40
2018-12-17T02:37:40.126Z,88.30
2018-12-17T02:40:07.705Z,88.40
2018-12-17T02:42:35.391Z,88.50
2018-12-17T02:47:30.472Z,88.50
2018-12-17T02:49:58.134Z,88.40
2018-12-17T02:52:25.584Z,88.40
2018-12-17T02:54:53.260Z,88.40
2018-12-17T02:57:20.760Z,88.30
2018-12-17T03:04:43.175Z,88.80
2018-12-17T03:07:10.719Z,88.60
2018-12-17T03:09:38.243Z,88.50
2018-12-17T03:12:05.810Z,88.50
2018-12-17T03:14:33.299Z,88.70
2018-12-17T03:17:00.815Z,88.70
2018-12-17T03:19:28.393Z,88.90
2018-12-17T03:21:55.849Z,89.10
2018-12-17T03:24:23.302Z,89.10
2018-12-17T03:26:50.962Z,89.70
2018-12-17T03:29:18.690Z,89.50
2018-12-17T03:31:46.441Z,89.40
2018-12-17T03:34:13.942Z,89.50
2018-12-17T03:36:41.381Z,89.70
2018-12-17T03:39:08.848Z,89.50
2018-12-17T03:41:36.542Z,89.50
2018-12-17T03:44:04.153Z,89.50
2018-12-17T03:46:31.706Z,89.20
2018-12-17T03:48:59.313Z,89.40
2018-12-17T03:51:26.760Z,89.40
2018-12-17T03:53:54.264Z,89.40
2018-12-17T03:56:21.841Z,89.40
2018-12-17T03:58:49.297Z,89.20
2018-12-17T04:01:16.737Z,89.20
2018-12-17T04:03:44.413Z,89.10
2018-12-17T04:09:33.278Z,89.10
2018-12-17T04:12:00.842Z,89.20
2018-12-17T04:14:28.295Z,89.10
2018-12-17T04:16:55.766Z,89.20
2018-12-17T04:19:23.298Z,89.10
2018-12-17T04:21:50.759Z,89.20
2018-12-17T04:24:18.510Z,89.10
2018-12-17T04:26:46.178Z,89.20
2018-12-17T04:29:13.831Z,89.20
2018-12-17T04:31:41.494Z,89.40
2018-12-17T04:34:08.943Z,89.40
2018-12-17T04:36:36.396Z,89.40
2018-12-17T04:39:05.795Z,89.50
2018-12-17T04:44:01.115Z,89.90
2018-12-17T04:46:28.784Z,89.40
2018-12-17T04:48:56.234Z,89.60
2018-12-17T04:51:23.917Z,89.20
2018-12-17T04:53:51.544Z,88.70
2018-12-17T05:01:14.110Z,88.70
2018-12-17T05:03:41.584Z,88.90
2018-12-17T05:06:09.143Z,89.60
2018-12-17T05:08:36.597Z,89.20
2018-12-17T05:11:04.135Z,89.60
2018-12-17T05:13:31.698Z,90.20
2018-12-17T05:18:26.702Z,90.60
2018-12-17T05:20:54.367Z,90.50
2018-12-17T05:23:21.815Z,90.40
2018-12-17T05:25:49.473Z,90.30
2018-12-17T05:33:12.494Z,90.40
2018-12-17T05:35:40.089Z,90.50
2018-12-17T05:38:07.535Z,90.50
2018-12-17T05:40:35.062Z,90.70
2018-12-17T05:43:02.526Z,90.80
2018-12-17T05:45:30.118Z,90.90
2018-12-17T05:47:57.577Z,90.90
2018-12-17T05:52:52.569Z,91.00
2018-12-17T05:57:47.493Z,90.80
2018-12-17T06:00:15.054Z,90.60
2018-12-17T06:05:10.369Z,90.70
2018-12-17T06:07:37.818Z,90.60
2018-12-17T06:10:05.690Z,90.70
2018-12-17T06:12:33.142Z,90.70
2018-12-17T06:15:00.577Z,90.70
2018-12-17T06:17:28.250Z,91.00
2018-12-17T06:22:23.270Z,90.70
2018-12-17T06:24:50.821Z,90.80
2018-12-17T06:27:18.478Z,90.90
2018-12-17T06:29:45.930Z,91.00
2018-12-17T06:32:13.406Z,91.00
2018-12-17T06:34:40.841Z,91.00
2018-12-17T06:42:03.826Z,91.00
2018-12-17T06:44:31.480Z,90.80
2018-12-17T06:46:58.955Z,90.80
2018-12-17T06:49:26.587Z,90.60
2018-12-17T06:51:54.488Z,90.70
2018-12-17T06:54:22.581Z,90.70
2018-12-17T06:56:50.182Z,90.60
2018-12-17T07:06:40.407Z,91.00
2018-12-17T07:09:08.085Z,91.10
2018-12-17T07:11:35.713Z,90.90
2018-12-17T07:14:03.374Z,90.90
2018-12-17T07:18:58.410Z,90.60
2018-12-17T07:23:53.398Z,90.40
2018-12-17T07:33:43.420Z,90.70
2018-12-17T07:36:11.077Z,90.60
2018-12-17T07:41:06.096Z,90.60
2018-12-17T07:43:33.554Z,90.60
2018-12-17T07:46:01.108Z,90.70
2018-12-17T07:48:28.759Z,90.70
2018-12-17T07:50:56.219Z,90.70
2018-12-17T07:53:23.866Z,90.60
2018-12-17T07:58:18.792Z,90.50
2018-12-17T08:00:46.308Z,90.50
2018-12-17T08:03:13.797Z,90.30
2018-12-17T08:05:41.338Z,90.20
2018-12-17T08:08:08.998Z,90.10
2018-12-17T08:10:36.657Z,90.10
2018-12-17T08:13:04.201Z,90.10
2018-12-17T08:15:32.295Z,90.00
2018-12-17T08:18:11.802Z,89.60
2018-12-17T08:20:39.376Z,89.50
2018-12-17T08:23:07.039Z,89.20
2018-12-17T08:28:02.054Z,88.90
2018-12-17T08:30:29.602Z,89.10
2018-12-17T08:32:57.061Z,89.40
2018-12-17T08:35:24.502Z,89.10
2018-12-17T08:37:52.076Z,88.90
2018-12-17T08:42:47.080Z,89.00
2018-12-17T08:45:14.729Z,89.10
2018-12-17T08:47:42.184Z,89.40
2018-12-17T08:50:09.846Z,89.00
2018-12-17T08:55:05.582Z,88.90
2018-12-17T08:57:37.908Z,89.00
2018-12-17T09:00:03.146Z,89.00
2018-12-17T09:02:30.614Z,88.90
2018-12-17T09:04:58.139Z,88.90
2018-12-17T09:07:25.674Z,88.90
2018-12-17T09:09:53.161Z,88.80
2018-12-17T09:12:20.821Z,88.90
2018-12-17T09:17:15.936Z,89.20
2018-12-17T09:19:43.596Z,89.10
2018-12-17T09:27:06.155Z,89.90
2018-12-17T09:29:33.638Z,89.70
2018-12-17T09:32:01.188Z,89.60
2018-12-17T09:34:28.625Z,89.80
2018-12-17T09:36:56.066Z,90.00
2018-12-17T09:39:23.630Z,89.70
2018-12-17T09:41:51.098Z,89.90
2018-12-17T09:44:18.537Z,89.40
2018-12-17T09:49:13.602Z,89.50
2018-12-17T09:51:41.315Z,89.40
2018-12-17T09:54:08.967Z,89.00
2018-12-17T09:56:36.626Z,88.80
2018-12-17T09:59:04.294Z,88.50
2018-12-17T10:01:31.951Z,88.50
2018-12-17T10:03:59.529Z,88.40
2018-12-17T10:06:27.077Z,88.20
2018-12-17T10:08:54.718Z,87.30
2018-12-17T10:11:22.173Z,86.80
2018-12-17T10:13:49.619Z,87.20
2018-12-17T10:16:17.286Z,87.40
2018-12-17T10:18:44.767Z,87.30
2018-12-17T10:21:12.402Z,87.10
2018-12-17T10:23:40.377Z,86.80
2018-12-17T10:28:36.911Z,86.30
2018-12-17T10:31:04.472Z,87.10
2018-12-17T10:33:32.158Z,85.40
2018-12-17T10:35:59.788Z,86.00
2018-12-17T10:38:27.445Z,84.50
2018-12-17T10:40:55.094Z,84.20
2018-12-17T10:43:22.574Z,84.40
2018-12-17T10:45:50.218Z,84.60
2018-12-17T10:48:17.646Z,85.30
2018-12-17T10:50:45.127Z,85.90
2018-12-17T10:53:12.599Z,86.20
2018-12-17T10:55:40.232Z,87.10
2018-12-17T10:58:07.886Z,88.00
2018-12-17T11:00:40.974Z,87.80
2018-12-17T11:05:39.141Z,85.40
2018-12-17T11:08:06.587Z,83.90
2018-12-17T11:13:01.830Z,81.40
2018-12-17T11:15:29.489Z,81.90
2018-12-17T11:20:24.560Z,83.30
2018-12-17T11:22:52.262Z,83.90
2018-12-17T11:25:19.927Z,84.60
2018-12-17T11:27:47.381Z,85.20
2018-12-17T11:32:43.347Z,85.20
2018-12-17T11:35:10.970Z,85.20
2018-12-17T11:37:38.418Z,84.90
2018-12-17T11:40:06.079Z,84.90
2018-12-17T11:42:33.541Z,85.30
2018-12-17T11:45:00.983Z,85.80
2018-12-17T11:47:28.435Z,86.10
2018-12-17T11:49:56.094Z,86.60
2018-12-17T11:52:23.558Z,87.10
2018-12-17T11:54:51.034Z,87.20
2018-12-17T11:57:24.239Z,87.50
2018-12-17T12:02:19.166Z,88.00
2018-12-17T12:04:46.746Z,88.00
2018-12-17T12:07:14.197Z,87.40
2018-12-17T12:09:41.798Z,87.40
2018-12-17T12:12:09.232Z,87.50
2018-12-17T12:14:36.788Z,87.70
2018-12-17T12:19:31.887Z,87.40
2018-12-17T12:21:59.344Z,87.20
2018-12-17T12:24:26.794Z,87.20
2018-12-17T12:26:54.346Z,87.00
2018-12-17T12:36:44.470Z,87.80
2018-12-17T12:39:11.921Z,87.80
2018-12-17T12:41:39.384Z,87.50
2018-12-17T12:44:08.939Z,87.80
2018-12-17T12:46:36.347Z,88.00
2018-12-17T12:49:03.823Z,88.00
2018-12-17T12:51:32.701Z,88.10
2018-12-17T12:56:28.097Z,88.10
2018-12-17T12:58:55.651Z,88.10
2018-12-17T13:01:23.314Z,88.40
2018-12-17T13:06:18.427Z,88.60
2018-12-17T13:08:46.081Z,88.60
2018-12-17T13:16:08.486Z,88.80
2018-12-17T13:18:36.101Z,88.90
2018-12-17T13:21:03.558Z,88.80
2018-12-17T13:23:31.027Z,88.80
2018-12-17T13:25:58.455Z,89.00
2018-12-17T13:28:25.932Z,89.20
2018-12-17T13:35:48.292Z,89.40
2018-12-17T13:38:15.741Z,89.40
2018-12-17T13:40:43.393Z,89.50
2018-12-17T13:43:11.092Z,89.50
2018-12-17T13:45:38.711Z,89.20
2018-12-17T13:50:35.671Z,89.10
2018-12-17T13:53:08.874Z,89.20
2018-12-17T13:55:36.321Z,89.20
2018-12-17T13:58:04.046Z,89.40
2018-12-17T14:00:32.537Z,89.50
2018-12-17T14:03:00.103Z,89.60
2018-12-17T14:05:27.757Z,89.60
2018-12-17T14:07:55.198Z,89.50
2018-12-17T14:10:28.369Z,89.60
2018-12-17T14:15:25.347Z,89.60
2018-12-17T14:17:54.725Z,89.70
2018-12-17T14:23:24.711Z,89.70
2018-12-17T14:30:47.337Z,90.00
2018-12-17T14:33:14.804Z,90.00
2018-12-17T14:35:48.117Z,90.00
2018-12-17T14:38:15.542Z,89.90
2018-12-17T14:40:42.992Z,90.00
2018-12-17T14:43:10.564Z,90.10
2018-12-17T14:45:38.017Z,90.10
2018-12-17T14:48:05.682Z,90.10
2018-12-17T14:50:33.302Z,90.10
2018-12-17T14:53:00.757Z,90.10
2018-12-17T14:55:28.508Z,90.10
2018-12-17T14:57:56.086Z,90.10
2018-12-17T15:00:23.557Z,90.20
2018-12-17T15:02:51.002Z,90.20
2018-12-17T15:05:18.465Z,90.30
2018-12-17T15:07:46.127Z,90.40
2018-12-17T15:10:13.792Z,90.40
2018-12-17T15:12:41.442Z,90.20
2018-12-17T15:15:10.165Z,90.10
2018-12-17T15:17:37.781Z,90.10
2018-12-17T15:20:08.158Z,90.10
2018-12-17T15:29:59.564Z,90.40
2018-12-17T15:32:27.004Z,90.60
2018-12-17T15:34:54.670Z,90.60
2018-12-17T15:37:22.191Z,90.70
2018-12-17T15:39:49.803Z,90.70
2018-12-17T15:42:17.266Z,90.90
2018-12-17T15:47:12.250Z,91.20
2018-12-17T15:49:39.686Z,91.20
2018-12-17T15:52:07.142Z,91.50
2018-12-17T15:54:34.569Z,91.60
2018-12-17T15:57:02.029Z,91.90
2018-12-17T16:01:57.302Z,92.00
2018-12-17T16:04:24.777Z,92.10
2018-12-17T16:06:52.389Z,92.00
2018-12-17T16:09:19.854Z,92.00
2018-12-17T16:11:47.505Z,92.00
2018-12-17T16:14:15.163Z,91.90
2018-12-17T16:16:42.819Z,91.90
2018-12-17T16:21:37.710Z,91.90
2018-12-17T16:24:05.182Z,92.10
2018-12-17T16:26:32.628Z,92.70
2018-12-17T16:29:00.069Z,92.40
2018-12-17T16:33:55.205Z,92.30
2018-12-17T16:36:22.702Z,92.10
2018-12-17T16:38:50.314Z,92.10
2018-12-17T16:43:45.431Z,91.80
2018-12-17T16:46:13.094Z,91.80
2018-12-17T16:51:08.093Z,91.90
2018-12-17T16:53:35.650Z,92.10
2018-12-17T16:58:30.766Z,91.90
2018-12-17T17:00:58.418Z,91.90
2018-12-17T17:03:26.086Z,92.20
2018-12-17T17:08:21.186Z,92.10
2018-12-17T17:10:48.862Z,91.90
2018-12-17T17:13:16.515Z,92.00
2018-12-17T17:15:43.984Z,92.00
2018-12-17T17:18:11.625Z,92.10
2018-12-17T17:20:39.349Z,91.90
2018-12-17T17:23:06.965Z,91.90
2018-12-17T17:25:34.394Z,91.90
2018-12-17T17:28:02.057Z,91.90
2018-12-17T17:30:29.713Z,92.20
2018-12-17T17:32:57.156Z,92.10
2018-12-17T17:35:24.613Z,92.10
2018-12-17T17:37:52.085Z,92.20
2018-12-17T17:40:19.727Z,92.30
2018-12-17T17:45:14.841Z,92.30
2018-12-17T17:47:42.306Z,92.30
2018-12-17T17:50:09.961Z,92.40
2018-12-17T17:52:37.568Z,92.40
2018-12-17T17:55:05.482Z,92.40
2018-12-17T17:57:32.943Z,92.40
2018-12-17T18:00:00.402Z,92.30
2018-12-17T18:02:28.000Z,92.30
2018-12-17T18:04:55.486Z,92.40
2018-12-17T18:07:22.935Z,92.30
2018-12-17T18:09:50.626Z,92.40
2018-12-17T18:12:18.135Z,92.50
2018-12-17T18:17:13.386Z,92.40
2018-12-17T18:19:41.042Z,92.50
2018-12-17T18:22:08.697Z,92.50
2018-12-17T18:24:36.353Z,92.40
2018-12-17T18:27:03.794Z,92.30
2018-12-17T18:29:31.466Z,92.30
2018-12-17T18:34:26.583Z,92.40
2018-12-17T18:36:54.247Z,92.30
2018-12-17T18:39:22.234Z,92.60
2018-12-17T18:41:49.665Z,92.70
2018-12-17T18:44:17.214Z,92.70
2018-12-17T18:46:44.877Z,92.90
2018-12-17T18:49:12.534Z,92.70
2018-12-17T18:51:40.193Z,92.80
2018-12-17T18:54:07.650Z,93.00
2018-12-17T18:56:35.115Z,92.90
2018-12-17T18:59:02.645Z,93.00
2018-12-17T19:01:30.090Z,93.10
2018-12-17T19:03:57.544Z,93.10
2018-12-17T19:08:52.465Z,92.90
2018-12-17T19:13:47.402Z,92.90
2018-12-17T19:16:14.941Z,93.00
2018-12-17T19:18:42.458Z,93.00
2018-12-17T19:21:10.046Z,93.00
2018-12-17T19:23:37.520Z,93.10
2018-12-17T19:26:05.164Z,92.90
2018-12-17T19:28:32.619Z,92.90
2018-12-17T19:31:00.083Z,93.00
2018-12-17T19:33:27.541Z,92.90
2018-12-17T19:35:55.115Z,92.80
2018-12-17T19:38:22.657Z,92.90
2018-12-17T19:40:50.291Z,92.90
2018-12-17T19:43:17.750Z,92.90
2018-12-17T19:50:40.314Z,93.00
2018-12-17T19:53:07.973Z,93.00
2018-12-17T19:55:35.438Z,93.00
2018-12-17T19:58:03.098Z,93.00
2018-12-17T20:00:30.542Z,93.10
2018-12-17T20:02:57.998Z,93.10
2018-12-17T20:05:25.445Z,93.10
2018-12-17T20:07:53.110Z,93.00
2018-12-17T20:12:48.433Z,92.90
2018-12-17T20:15:15.894Z,92.90
2018-12-17T20:17:43.341Z,92.90
2018-12-17T20:20:10.997Z,93.10
2018-12-17T20:22:38.434Z,93.10
2018-12-17T20:25:06.096Z,93.20
2018-12-17T20:30:01.201Z,93.10
2018-12-17T20:32:28.674Z,93.10
2018-12-17T20:34:56.331Z,93.20
2018-12-17T20:37:23.982Z,93.20
2018-12-17T20:39:51.436Z,93.20
2018-12-17T20:42:18.902Z,93.20
2018-12-17T20:49:41.682Z,93.10
2018-12-17T20:52:09.134Z,93.20
2018-12-17T20:54:36.593Z,93.30
2018-12-17T20:57:04.089Z,93.30
2018-12-17T20:59:31.689Z,93.20
2018-12-17T21:01:59.346Z,93.30
2018-12-17T21:04:26.808Z,93.40
2018-12-17T21:06:54.263Z,93.70
2018-12-17T21:09:21.909Z,93.70
2018-12-17T21:11:49.365Z,93.70
2018-12-17T21:14:23.437Z,93.80
2018-12-17T21:16:46.533Z,93.80
2018-12-17T21:19:14.176Z,93.80
2018-12-17T21:21:41.836Z,93.80
2018-12-17T21:24:09.398Z,93.70
2018-12-17T21:26:36.981Z,93.80
2018-12-17T21:29:04.511Z,93.80
2018-12-17T21:31:32.285Z,93.70
2018-12-17T21:33:59.738Z,93.60
2018-12-17T21:36:27.386Z,93.60
2018-12-17T21:38:54.865Z,93.70
2018-12-17T21:41:22.499Z,93.50
2018-12-17T21:43:49.956Z,93.60
2018-12-17T21:46:17.606Z,93.50
2018-12-17T21:48:45.285Z,93.40
2018-12-17T21:51:12.739Z,93.40
2018-12-17T21:53:40.378Z,93.50
2018-12-17T21:56:07.833Z,93.40
2018-12-17T21:58:35.494Z,93.40
2018-12-17T22:01:03.025Z,93.30
2018-12-17T22:03:30.457Z,93.40
2018-12-17T22:05:58.061Z,93.40
2018-12-17T22:08:25.727Z,93.40
2018-12-17T22:13:20.839Z,93.30
2018-12-17T22:15:48.491Z,93.30
2018-12-17T22:18:16.150Z,93.20
2018-12-17T22:20:43.602Z,93.20
2018-12-17T22:23:11.267Z,93.30
2018-12-17T22:25:38.729Z,93.40
2018-12-17T22:28:06.173Z,93.40
2018-12-17T22:33:01.481Z,93.50
2018-12-17T22:35:29.142Z,93.40
2018-12-17T22:37:56.619Z,93.40
2018-12-17T22:40:24.254Z,93.30
2018-12-17T22:42:51.751Z,93.40
2018-12-17T22:45:19.367Z,93.50
2018-12-17T22:47:46.831Z,93.60
2018-12-17T22:50:14.273Z,93.50
2018-12-17T22:52:41.829Z,93.40
2018-12-17T22:55:09.409Z,93.60
2018-12-17T22:57:36.844Z,93.70
2018-12-17T23:02:32.977Z,93.70
2018-12-17T23:05:00.637Z,93.70
2018-12-17T23:07:28.101Z,93.60
2018-12-17T23:10:07.685Z,93.60
2018-12-17T23:12:47.162Z,93.60
2018-12-17T23:15:26.461Z,93.70
2018-12-17T23:17:53.781Z,93.70
2018-12-17T23:20:21.241Z,93.80
2018-12-17T23:22:48.722Z,94.00
2018-12-17T23:25:16.518Z,93.90
2018-12-17T23:30:15.691Z,93.90
2018-12-17T23:35:10.722Z,94.00
2018-12-17T23:37:38.297Z,94.00
2018-12-17T23:40:06.130Z,94.20
2018-12-17T23:42:33.622Z,94.20
2018-12-17T23:45:01.090Z,94.20
2018-12-17T23:47:28.727Z,94.10
2018-12-17T23:49:56.204Z,94.10
2018-12-17T23:52:23.654Z,94.00
2018-12-17T23:54:51.286Z,93.90
2018-12-17T23:57:19.002Z,93.80
2018-12-17T23:59:46.606Z,93.60
